createdAt,value
2023-01-21T00:00:19.841Z,0.18
2023-01-21T00:01:17.825Z,0.09
2023-01-21T00:02:14.533Z,0.18
2023-01-21T00:03:13.080Z,0.04
2023-01-21T00:04:09.818Z,0.00
2023-01-21T00:05:06.682Z,-0.22
2023-01-21T00:06:04.049Z,-0.09
2023-01-21T00:07:02.661Z,-0.21
2023-01-21T00:08:01.774Z,-0.25
2023-01-21T00:08:59.587Z,-0.52
2023-01-21T00:09:56.171Z,-0.33
2023-01-21T00:10:52.939Z,-0.43
2023-01-21T00:11:49.603Z,-0.33
2023-01-21T00:12:46.281Z,-0.44
2023-01-21T00:13:44.104Z,0.07
2023-01-21T00:14:40.667Z,0.31
2023-01-21T00:15:37.329Z,0.03
2023-01-21T00:16:34.007Z,-0.40
2023-01-21T00:17:35.297Z,-0.45
2023-01-21T00:18:32.005Z,-0.72
2023-01-21T00:19:29.654Z,-0.57
2023-01-21T00:20:26.306Z,-0.63
2023-01-21T00:21:22.980Z,-0.63
2023-01-21T00:22:19.594Z,-0.55
2023-01-21T00:23:16.229Z,-0.45
2023-01-21T00:24:12.924Z,-0.21
2023-01-21T00:25:09.707Z,-0.13
2023-01-21T00:26:08.633Z,0.04
2023-01-21T00:27:05.400Z,0.10
2023-01-21T00:28:01.994Z,0.11
2023-01-21T00:28:58.607Z,0.07
2023-01-21T00:29:55.136Z,0.14
2023-01-21T00:30:52.639Z,0.04
2023-01-21T00:31:49.486Z,0.20
2023-01-21T00:32:46.089Z,0.45
2023-01-21T00:33:42.742Z,0.43
2023-01-21T00:34:39.461Z,0.65
2023-01-21T00:35:36.087Z,0.87
2023-01-21T00:36:32.777Z,0.91
2023-01-21T00:37:29.362Z,0.70
2023-01-21T00:38:25.981Z,0.55
2023-01-21T00:39:22.515Z,0.30
2023-01-21T00:40:19.450Z,0.31
2023-01-21T00:41:17.385Z,0.20
2023-01-21T00:42:14.129Z,0.65
2023-01-21T00:43:10.714Z,0.57
2023-01-21T00:44:07.372Z,0.82
2023-01-21T00:45:04.299Z,0.63
2023-01-21T00:46:01.039Z,0.72
2023-01-21T00:46:57.633Z,0.31
2023-01-21T00:47:54.226Z,0.26
2023-01-21T00:48:50.808Z,0.38
2023-01-21T00:49:47.385Z,0.70
2023-01-21T00:50:44.059Z,0.63
2023-01-21T00:51:40.648Z,0.48
2023-01-21T00:52:38.634Z,0.50
2023-01-21T00:53:42.115Z,0.75
2023-01-21T00:54:38.765Z,0.58
2023-01-21T00:55:35.326Z,0.76
2023-01-21T00:56:32.060Z,0.75
2023-01-21T00:57:28.868Z,0.66
2023-01-21T00:58:25.829Z,0.96
2023-01-21T00:59:22.480Z,1.02
2023-01-21T01:00:19.540Z,0.92
2023-01-21T01:01:19.357Z,0.77
2023-01-21T01:02:16.157Z,0.59
2023-01-21T01:03:12.765Z,0.64
2023-01-21T01:04:11.084Z,0.70
2023-01-21T01:05:08.434Z,0.89
2023-01-21T01:06:14.235Z,0.63
2023-01-21T01:07:11.910Z,-0.02
2023-01-21T01:08:08.632Z,0.29
2023-01-21T01:09:05.470Z,0.32
2023-01-21T01:10:02.235Z,0.39
2023-01-21T01:10:59.607Z,0.38
2023-01-21T01:11:56.274Z,0.50
2023-01-21T01:12:52.893Z,0.45
2023-01-21T01:13:49.478Z,0.41
2023-01-21T01:14:47.117Z,0.32
2023-01-21T01:15:43.746Z,0.53
2023-01-21T01:16:40.375Z,0.88
2023-01-21T01:17:37.158Z,0.85
2023-01-21T01:18:36.650Z,0.59
2023-01-21T01:19:33.259Z,0.65
2023-01-21T01:20:29.823Z,0.89
2023-01-21T01:21:26.595Z,1.02
2023-01-21T01:22:23.267Z,1.08
2023-01-21T01:23:20.128Z,0.79
2023-01-21T01:24:17.620Z,0.52
2023-01-21T01:25:14.307Z,0.69
2023-01-21T01:26:14.509Z,0.86
2023-01-21T01:27:11.055Z,0.90
2023-01-21T01:28:08.094Z,1.03
2023-01-21T01:29:05.658Z,0.70
2023-01-21T01:30:02.287Z,0.65
2023-01-21T01:31:00.135Z,0.68
2023-01-21T01:31:56.941Z,0.59
2023-01-21T01:32:53.500Z,0.67
2023-01-21T01:33:50.150Z,0.74
2023-01-21T01:34:46.753Z,0.57
2023-01-21T01:35:47.033Z,0.61
2023-01-21T01:36:43.743Z,0.50
2023-01-21T01:37:40.315Z,0.50
2023-01-21T01:38:37.070Z,0.65
2023-01-21T01:39:33.906Z,0.66
2023-01-21T01:40:33.228Z,0.88
2023-01-21T01:41:32.940Z,0.78
2023-01-21T01:42:29.562Z,0.94
2023-01-21T01:43:47.573Z,1.21
2023-01-21T01:44:58.138Z,1.22
2023-01-21T01:45:54.781Z,1.03
2023-01-21T01:46:51.490Z,0.74
2023-01-21T01:47:59.962Z,0.52
2023-01-21T01:49:06.137Z,-0.20
2023-01-21T01:50:04.353Z,-0.38
2023-01-21T01:51:04.195Z,-0.46
2023-01-21T01:52:04.996Z,-0.37
2023-01-21T01:53:02.267Z,-0.57
2023-01-21T01:53:59.928Z,-0.25
2023-01-21T01:54:58.585Z,-0.23
2023-01-21T01:55:55.674Z,-0.44
2023-01-21T01:56:57.575Z,0.24
2023-01-21T01:57:55.293Z,-0.18
2023-01-21T01:58:53.518Z,0.09
2023-01-21T01:59:50.970Z,0.02
2023-01-21T02:00:47.688Z,-0.05
2023-01-21T02:01:44.811Z,-0.65
2023-01-21T02:02:43.705Z,-0.39
2023-01-21T02:03:46.197Z,-0.43
2023-01-21T02:04:47.633Z,-0.52
2023-01-21T02:05:44.989Z,-0.79
2023-01-21T02:06:42.953Z,-0.27
2023-01-21T02:07:42.983Z,-0.25
2023-01-21T02:08:40.338Z,-0.37
2023-01-21T02:09:37.086Z,-0.28
2023-01-21T02:10:34.536Z,-0.57
2023-01-21T02:11:31.170Z,-0.37
2023-01-21T02:12:27.952Z,-0.41
2023-01-21T02:13:28.376Z,-0.11
2023-01-21T02:14:25.446Z,-0.04
2023-01-21T02:15:28.772Z,-0.15
2023-01-21T02:16:34.639Z,-0.26
2023-01-21T02:17:59.047Z,-0.40
2023-01-21T02:19:07.515Z,-0.27
2023-01-21T02:20:22.969Z,-0.01
2023-01-21T02:21:28.571Z,0.10
2023-01-21T02:22:35.245Z,0.12
2023-01-21T02:23:46.051Z,0.10
2023-01-21T02:25:04.019Z,0.10
2023-01-21T02:26:21.996Z,-0.14
2023-01-21T02:27:43.103Z,0.06
2023-01-21T02:28:51.778Z,0.15
2023-01-21T02:30:07.195Z,0.25
2023-01-21T02:31:32.989Z,0.22
2023-01-21T02:33:15.377Z,0.23
2023-01-21T02:34:22.135Z,0.29
2023-01-21T02:35:31.448Z,0.10
2023-01-21T02:36:59.412Z,-0.14
2023-01-21T02:38:46.840Z,-0.12
2023-01-21T02:40:02.215Z,0.00
2023-01-21T02:41:06.252Z,-0.14
2023-01-21T02:42:17.287Z,-0.35
2023-01-21T02:43:29.177Z,-0.58
2023-01-21T02:44:48.634Z,-0.68
2023-01-21T02:46:20.875Z,-0.98
2023-01-21T02:47:57.492Z,-0.72
2023-01-21T02:49:03.941Z,-0.23
2023-01-21T02:50:09.066Z,-0.50
2023-01-21T02:51:06.199Z,-0.43
2023-01-21T02:52:02.990Z,-0.55
2023-01-21T02:53:01.952Z,-0.82
2023-01-21T02:53:58.707Z,-0.77
2023-01-21T02:55:00.703Z,-0.61
2023-01-21T02:56:01.403Z,-0.44
2023-01-21T02:56:58.117Z,-0.35
2023-01-21T02:58:00.206Z,-0.40
2023-01-21T02:59:01.851Z,-0.09
2023-01-21T03:00:00.438Z,-0.11
2023-01-21T03:01:25.467Z,0.06
2023-01-21T03:02:28.953Z,-0.10
2023-01-21T03:03:48.425Z,-0.02
2023-01-21T03:05:07.158Z,-0.31
2023-01-21T03:06:14.166Z,-0.33
2023-01-21T03:07:10.679Z,-0.24
2023-01-21T03:08:17.534Z,-0.37
2023-01-21T03:09:25.590Z,-0.46
2023-01-21T03:10:48.105Z,-1.11
2023-01-21T03:12:09.163Z,-0.65
2023-01-21T03:13:38.335Z,-0.66
2023-01-21T03:14:59.876Z,-0.73
2023-01-21T03:16:16.365Z,-0.91
2023-01-21T03:17:31.504Z,-0.77
2023-01-21T03:18:36.948Z,-0.41
2023-01-21T03:19:46.914Z,-0.49
2023-01-21T03:20:47.591Z,-0.47
2023-01-21T03:21:44.981Z,-0.48
2023-01-21T03:22:43.589Z,-0.46
2023-01-21T03:23:43.900Z,-0.49
2023-01-21T03:24:43.994Z,-0.44
2023-01-21T03:25:41.545Z,-0.51
2023-01-21T03:26:42.519Z,-0.31
2023-01-21T03:27:43.298Z,-0.06
2023-01-21T03:28:44.749Z,-0.07
2023-01-21T03:29:42.399Z,-0.19
2023-01-21T03:30:43.921Z,-0.22
2023-01-21T03:31:44.202Z,-0.14
2023-01-21T03:32:43.532Z,-0.06
2023-01-21T03:33:46.510Z,-0.07
2023-01-21T03:34:48.705Z,-0.07
2023-01-21T03:35:49.515Z,-0.27
2023-01-21T03:36:53.879Z,-0.48
2023-01-21T03:38:25.128Z,-0.61
2023-01-21T03:39:33.687Z,-0.23
2023-01-21T03:40:35.331Z,-0.11
2023-01-21T03:41:36.515Z,-0.28
2023-01-21T03:42:33.660Z,-0.18
2023-01-21T03:43:30.749Z,-0.33
2023-01-21T03:44:27.524Z,-0.28
2023-01-21T03:45:40.328Z,-0.06
2023-01-21T03:46:44.233Z,-0.14
2023-01-21T03:47:46.776Z,0.19
2023-01-21T03:48:50.136Z,0.24
2023-01-21T03:50:01.134Z,0.11
2023-01-21T03:51:04.720Z,0.37
2023-01-21T03:52:03.750Z,0.22
2023-01-21T03:53:00.513Z,0.18
2023-01-21T03:53:58.860Z,0.35
2023-01-21T03:54:55.790Z,-0.01
2023-01-21T03:55:52.514Z,-0.10
2023-01-21T03:56:49.099Z,-0.15
2023-01-21T03:57:45.716Z,0.06
2023-01-21T03:58:42.278Z,0.20
2023-01-21T03:59:38.834Z,0.32
2023-01-21T04:00:35.511Z,0.18
2023-01-21T04:01:32.077Z,0.28
2023-01-21T04:02:28.740Z,0.22
2023-01-21T04:03:25.484Z,0.45
2023-01-21T04:04:22.157Z,0.33
2023-01-21T04:05:18.804Z,0.11
2023-01-21T04:06:18.067Z,0.30
2023-01-21T04:07:16.112Z,0.35
2023-01-21T04:08:12.705Z,0.33
2023-01-21T04:09:11.089Z,0.19
2023-01-21T04:10:08.763Z,-0.06
2023-01-21T04:11:05.659Z,0.28
2023-01-21T04:12:02.217Z,0.31
2023-01-21T04:12:58.935Z,0.25
2023-01-21T04:13:55.506Z,0.35
2023-01-21T04:14:52.417Z,0.22
2023-01-21T04:15:49.026Z,0.05
2023-01-21T04:16:45.627Z,0.32
2023-01-21T04:17:42.239Z,0.29
2023-01-21T04:18:38.795Z,0.26
2023-01-21T04:19:35.777Z,0.30
2023-01-21T04:20:32.408Z,0.22
2023-01-21T04:21:29.144Z,0.35
2023-01-21T04:22:25.818Z,0.08
2023-01-21T04:23:22.436Z,0.30
2023-01-21T04:24:19.057Z,0.31
2023-01-21T04:25:15.658Z,0.20
2023-01-21T04:26:12.311Z,-0.62
2023-01-21T04:27:08.909Z,-0.23
2023-01-21T04:28:05.533Z,-0.03
2023-01-21T04:29:02.205Z,-0.12
2023-01-21T04:29:59.091Z,0.13
2023-01-21T04:30:55.943Z,0.18
2023-01-21T04:31:53.222Z,0.00
2023-01-21T04:32:49.829Z,0.02
2023-01-21T04:33:46.444Z,-0.01
2023-01-21T04:34:43.044Z,0.04
2023-01-21T04:35:39.621Z,0.46
2023-01-21T04:36:36.237Z,0.50
2023-01-21T04:37:33.848Z,0.55
2023-01-21T04:38:30.489Z,0.50
2023-01-21T04:39:27.090Z,0.71
2023-01-21T04:40:23.735Z,0.65
2023-01-21T04:41:20.301Z,0.72
2023-01-21T04:42:16.940Z,0.67
2023-01-21T04:43:13.504Z,0.67
2023-01-21T04:44:10.157Z,0.51
2023-01-21T04:45:07.624Z,0.39
2023-01-21T04:46:04.329Z,0.64
2023-01-21T04:47:00.989Z,0.35
2023-01-21T04:47:57.559Z,0.28
2023-01-21T04:48:54.242Z,0.40
2023-01-21T04:49:52.782Z,0.37
2023-01-21T04:50:49.490Z,0.15
2023-01-21T04:51:46.100Z,0.46
2023-01-21T04:52:43.081Z,0.28
2023-01-21T04:53:39.675Z,0.34
2023-01-21T04:54:36.312Z,0.28
2023-01-21T04:55:32.868Z,0.46
2023-01-21T04:56:29.506Z,0.36
2023-01-21T04:57:26.072Z,0.59
2023-01-21T04:58:22.919Z,0.38
2023-01-21T04:59:19.615Z,0.40
2023-01-21T05:00:17.188Z,0.27
2023-01-21T05:01:13.918Z,0.55
2023-01-21T05:02:10.544Z,0.61
2023-01-21T05:03:07.284Z,0.57
2023-01-21T05:04:04.136Z,0.43
2023-01-21T05:05:00.726Z,0.68
2023-01-21T05:05:57.343Z,0.74
2023-01-21T05:06:54.047Z,0.74
2023-01-21T05:07:53.927Z,0.87
2023-01-21T05:08:50.572Z,0.94
2023-01-21T05:09:47.131Z,0.98
2023-01-21T05:10:43.733Z,1.05
2023-01-21T05:11:40.561Z,1.18
2023-01-21T05:12:37.161Z,1.03
2023-01-21T05:13:33.740Z,1.01
2023-01-21T05:14:30.465Z,1.01
2023-01-21T05:15:27.159Z,0.97
2023-01-21T05:16:23.939Z,0.68
2023-01-21T05:17:21.253Z,0.61
2023-01-21T05:18:17.869Z,0.67
2023-01-21T05:19:14.483Z,0.72
2023-01-21T05:20:11.546Z,0.45
2023-01-21T05:21:08.328Z,0.88
2023-01-21T05:22:04.958Z,0.44
2023-01-21T05:23:01.678Z,0.44
2023-01-21T05:23:58.224Z,0.43
2023-01-21T05:24:54.876Z,0.37
2023-01-21T05:25:51.514Z,0.27
2023-01-21T05:26:49.776Z,0.32
2023-01-21T05:27:52.289Z,0.20
2023-01-21T05:28:48.920Z,0.07
2023-01-21T05:29:47.624Z,0.05
2023-01-21T05:30:44.765Z,-0.05
2023-01-21T05:31:41.475Z,-0.11
2023-01-21T05:32:38.163Z,-0.08
2023-01-21T05:33:35.577Z,-0.06
2023-01-21T05:34:32.120Z,0.16
2023-01-21T05:35:28.761Z,-0.02
2023-01-21T05:36:25.595Z,-0.08
2023-01-21T05:37:22.227Z,-0.13
2023-01-21T05:38:18.758Z,-0.21
2023-01-21T05:39:15.420Z,-0.17
2023-01-21T05:40:12.592Z,-0.16
2023-01-21T05:41:09.637Z,-0.21
2023-01-21T05:42:06.228Z,0.07
2023-01-21T05:43:02.756Z,0.23
2023-01-21T05:43:59.344Z,0.48
2023-01-21T05:44:56.728Z,0.41
2023-01-21T05:45:54.140Z,0.19
2023-01-21T05:46:50.810Z,0.25
2023-01-21T05:47:47.461Z,0.03
2023-01-21T05:48:44.246Z,-0.32
2023-01-21T05:49:40.904Z,-0.05
2023-01-21T05:50:38.563Z,-0.16
2023-01-21T05:51:35.372Z,-0.45
2023-01-21T05:52:32.111Z,-0.44
2023-01-21T05:53:28.697Z,-0.43
2023-01-21T05:54:25.274Z,-0.09
2023-01-21T05:55:21.854Z,0.17
2023-01-21T05:56:18.670Z,0.15
2023-01-21T05:57:15.270Z,-0.04
2023-01-21T05:58:12.026Z,-0.20
2023-01-21T05:59:09.479Z,-0.11
2023-01-21T06:00:06.746Z,-0.26
2023-01-21T06:01:03.612Z,-0.23
2023-01-21T06:02:00.168Z,-0.10
2023-01-21T06:02:56.708Z,-0.01
2023-01-21T06:03:53.373Z,-0.08
2023-01-21T06:04:50.309Z,0.14
2023-01-21T06:05:49.674Z,0.24
2023-01-21T06:06:46.273Z,-0.01
2023-01-21T06:07:42.846Z,-0.07
2023-01-21T06:08:39.461Z,0.01
2023-01-21T06:09:36.143Z,0.29
2023-01-21T06:10:32.695Z,0.14
2023-01-21T06:11:29.311Z,0.11
2023-01-21T06:12:25.916Z,0.25
2023-01-21T06:13:23.659Z,0.41
2023-01-21T06:14:20.255Z,0.24
2023-01-21T06:15:16.990Z,0.56
2023-01-21T06:16:13.666Z,-0.09
2023-01-21T06:17:10.250Z,0.47
2023-01-21T06:18:07.268Z,0.37
2023-01-21T06:19:03.846Z,0.53
2023-01-21T06:20:00.337Z,0.34
2023-01-21T06:21:00.374Z,0.31
2023-01-21T06:21:56.936Z,0.34
2023-01-21T06:22:53.508Z,0.58
2023-01-21T06:23:50.083Z,0.56
2023-01-21T06:24:46.687Z,0.28
2023-01-21T06:25:43.642Z,0.69
2023-01-21T06:26:40.249Z,0.75
2023-01-21T06:27:38.272Z,0.67
2023-01-21T06:28:34.873Z,0.77
2023-01-21T06:29:31.411Z,0.98
2023-01-21T06:30:28.119Z,0.35
2023-01-21T06:31:24.842Z,0.66
2023-01-21T06:32:21.609Z,0.74
2023-01-21T06:33:18.211Z,0.76
2023-01-21T06:34:15.134Z,0.96
2023-01-21T06:35:11.744Z,1.04
2023-01-21T06:36:08.707Z,0.99
2023-01-21T06:37:05.368Z,0.92
2023-01-21T06:38:02.014Z,0.50
2023-01-21T06:38:58.641Z,1.19
2023-01-21T06:39:55.252Z,1.03
2023-01-21T06:40:51.919Z,0.97
2023-01-21T06:41:48.518Z,1.18
2023-01-21T06:42:47.052Z,1.48
2023-01-21T06:43:43.698Z,1.66
2023-01-21T06:44:40.392Z,1.54
2023-01-21T06:45:36.958Z,1.34
2023-01-21T06:46:33.579Z,1.23
2023-01-21T06:47:30.184Z,1.34
2023-01-21T06:48:26.832Z,1.58
2023-01-21T06:49:23.448Z,1.65
2023-01-21T06:50:20.223Z,1.80
2023-01-21T06:51:17.197Z,1.69
2023-01-21T06:52:13.862Z,1.77
2023-01-21T06:53:10.591Z,1.87
2023-01-21T06:54:07.207Z,2.02
2023-01-21T06:55:04.617Z,2.10
2023-01-21T06:56:01.185Z,1.98
2023-01-21T06:56:58.098Z,1.93
2023-01-21T06:57:54.720Z,1.94
2023-01-21T06:58:51.300Z,1.35
2023-01-21T06:59:47.895Z,1.60
2023-01-21T07:00:44.597Z,1.55
2023-01-21T07:01:41.231Z,1.51
2023-01-21T07:02:37.996Z,1.72
2023-01-21T07:03:34.656Z,1.90
2023-01-21T07:04:31.261Z,2.10
2023-01-21T07:05:28.001Z,2.14
2023-01-21T07:06:25.528Z,2.30
2023-01-21T07:07:22.139Z,2.43
2023-01-21T07:08:18.769Z,2.02
2023-01-21T07:09:15.347Z,2.09
2023-01-21T07:10:11.933Z,2.15
2023-01-21T07:11:08.666Z,1.91
2023-01-21T07:12:05.447Z,2.01
2023-01-21T07:13:01.997Z,2.10
2023-01-21T07:13:58.696Z,1.92
2023-01-21T07:14:55.251Z,2.05
2023-01-21T07:15:51.897Z,2.05
2023-01-21T07:16:48.504Z,1.91
2023-01-21T07:17:45.080Z,2.24
2023-01-21T07:18:41.709Z,2.39
2023-01-21T07:19:38.410Z,2.34
2023-01-21T07:20:35.019Z,2.72
2023-01-21T07:21:31.848Z,2.55
2023-01-21T07:22:28.473Z,2.60
2023-01-21T07:23:25.453Z,2.61
2023-01-21T07:24:22.204Z,2.54
2023-01-21T07:25:19.169Z,2.56
2023-01-21T07:26:16.270Z,2.69
2023-01-21T07:27:12.876Z,2.86
2023-01-21T07:28:09.483Z,2.97
2023-01-21T07:29:09.260Z,2.78
2023-01-21T07:30:06.619Z,2.99
2023-01-21T07:31:04.887Z,2.76
2023-01-21T07:32:01.513Z,3.03
2023-01-21T07:32:58.171Z,3.16
2023-01-21T07:33:54.773Z,3.15
2023-01-21T07:34:51.473Z,3.09
2023-01-21T07:35:48.072Z,3.21
2023-01-21T07:36:44.633Z,3.21
2023-01-21T07:37:41.416Z,3.33
2023-01-21T07:38:38.159Z,3.13
2023-01-21T07:39:34.745Z,3.36
2023-01-21T07:40:31.356Z,3.50
2023-01-21T07:41:27.982Z,3.32
2023-01-21T07:42:24.726Z,3.34
2023-01-21T07:43:21.354Z,3.42
2023-01-21T07:44:17.996Z,3.44
2023-01-21T07:45:14.574Z,3.55
2023-01-21T07:46:11.279Z,3.52
2023-01-21T07:47:08.020Z,3.62
2023-01-21T07:48:05.029Z,3.66
2023-01-21T07:49:01.824Z,3.62
2023-01-21T07:49:58.509Z,3.66
2023-01-21T07:50:59.251Z,3.83
2023-01-21T07:51:57.242Z,3.96
2023-01-21T07:52:59.583Z,3.74
2023-01-21T07:53:56.740Z,3.65
2023-01-21T07:54:53.316Z,3.68
2023-01-21T07:55:50.000Z,3.72
2023-01-21T07:56:46.592Z,3.81
2023-01-21T07:57:43.122Z,4.00
2023-01-21T07:58:39.817Z,3.96
2023-01-21T07:59:36.360Z,3.65
2023-01-21T08:00:32.993Z,3.80
2023-01-21T08:01:31.503Z,3.94
2023-01-21T08:02:28.264Z,4.15
2023-01-21T08:03:25.390Z,4.14
2023-01-21T08:04:22.057Z,3.94
2023-01-21T08:05:18.850Z,3.90
2023-01-21T08:06:16.531Z,3.94
2023-01-21T08:07:13.395Z,4.00
2023-01-21T08:08:10.043Z,4.07
2023-01-21T08:09:06.958Z,4.15
2023-01-21T08:10:03.959Z,4.24
2023-01-21T08:11:00.562Z,4.27
2023-01-21T08:11:57.740Z,4.34
2023-01-21T08:12:54.295Z,4.24
2023-01-21T08:13:50.935Z,4.15
2023-01-21T08:14:47.508Z,4.62
2023-01-21T08:15:44.299Z,4.69
2023-01-21T08:16:41.041Z,4.59
2023-01-21T08:17:39.266Z,4.45
2023-01-21T08:18:35.845Z,4.53
2023-01-21T08:19:32.518Z,4.51
2023-01-21T08:20:29.180Z,4.60
2023-01-21T08:21:25.786Z,4.57
2023-01-21T08:22:23.257Z,4.65
2023-01-21T08:23:19.940Z,4.74
2023-01-21T08:24:18.544Z,4.71
2023-01-21T08:25:15.256Z,4.54
2023-01-21T08:26:12.170Z,4.62
2023-01-21T08:27:09.009Z,4.82
2023-01-21T08:28:05.891Z,5.04
2023-01-21T08:29:02.650Z,5.03
2023-01-21T08:29:59.216Z,5.05
2023-01-21T08:31:03.314Z,5.19
2023-01-21T08:32:00.453Z,5.17
2023-01-21T08:32:57.886Z,5.20
2023-01-21T08:33:54.847Z,5.23
2023-01-21T08:34:51.749Z,5.23
2023-01-21T08:35:48.413Z,5.08
2023-01-21T08:36:45.303Z,5.14
2023-01-21T08:37:41.944Z,5.00
2023-01-21T08:38:39.787Z,5.06
2023-01-21T08:39:36.423Z,5.09
2023-01-21T08:40:33.096Z,5.23
2023-01-21T08:41:29.686Z,5.33
2023-01-21T08:42:26.389Z,5.28
2023-01-21T08:43:23.051Z,5.58
2023-01-21T08:44:19.622Z,5.50
2023-01-21T08:45:16.379Z,5.19
2023-01-21T08:46:13.977Z,5.94
2023-01-21T08:47:10.550Z,5.71
2023-01-21T08:48:07.896Z,5.63
2023-01-21T08:49:05.255Z,5.52
2023-01-21T08:50:02.011Z,5.37
2023-01-21T08:50:59.897Z,5.48
2023-01-21T08:51:56.534Z,5.78
2023-01-21T08:52:54.737Z,5.69
2023-01-21T08:53:51.932Z,5.42
2023-01-21T08:54:50.634Z,5.59
2023-01-21T08:55:47.396Z,5.63
2023-01-21T08:56:43.985Z,5.61
2023-01-21T08:57:40.527Z,5.80
2023-01-21T08:58:37.150Z,5.82
2023-01-21T08:59:33.769Z,5.62
2023-01-21T09:00:30.415Z,5.60
2023-01-21T09:01:27.097Z,5.43
2023-01-21T09:02:23.791Z,5.64
2023-01-21T09:03:20.397Z,5.39
2023-01-21T09:04:19.318Z,5.33
2023-01-21T09:05:16.560Z,5.25
2023-01-21T09:06:13.364Z,5.19
2023-01-21T09:07:10.036Z,5.32
2023-01-21T09:08:06.631Z,5.40
2023-01-21T09:09:03.323Z,5.65
2023-01-21T09:09:59.957Z,5.94
2023-01-21T09:11:03.409Z,6.14
2023-01-21T09:12:00.060Z,6.22
2023-01-21T09:12:56.587Z,6.11
2023-01-21T09:13:53.360Z,5.78
2023-01-21T09:14:49.992Z,6.24
2023-01-21T09:15:46.628Z,6.27
2023-01-21T09:16:43.282Z,6.22
2023-01-21T09:17:39.859Z,5.93
2023-01-21T09:18:37.457Z,5.88
2023-01-21T09:19:34.037Z,5.68
2023-01-21T09:20:30.904Z,5.44
2023-01-21T09:21:27.643Z,5.36
2023-01-21T09:22:24.260Z,5.31
2023-01-21T09:23:27.644Z,5.09
2023-01-21T09:24:25.210Z,5.03
2023-01-21T09:25:23.304Z,5.50
2023-01-21T09:26:22.613Z,5.71
2023-01-21T09:27:19.223Z,6.00
2023-01-21T09:28:16.784Z,6.04
2023-01-21T09:29:13.459Z,6.10
2023-01-21T09:30:10.880Z,6.30
2023-01-21T09:31:10.388Z,6.69
2023-01-21T09:32:07.488Z,6.66
2023-01-21T09:33:04.093Z,6.88
2023-01-21T09:34:04.065Z,6.80
2023-01-21T09:35:00.682Z,6.88
2023-01-21T09:35:59.600Z,7.02
2023-01-21T09:36:56.231Z,7.08
2023-01-21T09:37:52.898Z,7.06
2023-01-21T09:38:50.601Z,6.93
2023-01-21T09:39:49.178Z,7.35
2023-01-21T09:40:46.251Z,6.87
2023-01-21T09:41:52.098Z,6.82
2023-01-21T09:42:48.812Z,6.83
2023-01-21T09:44:01.115Z,6.86
2023-01-21T09:45:00.972Z,6.69
2023-01-21T09:46:01.161Z,6.81
2023-01-21T09:47:09.537Z,7.11
2023-01-21T09:48:07.747Z,6.79
2023-01-21T09:49:09.906Z,6.99
2023-01-21T09:50:14.320Z,7.01
2023-01-21T09:51:22.431Z,7.15
2023-01-21T09:52:29.816Z,7.19
2023-01-21T09:53:32.469Z,6.94
2023-01-21T09:54:31.881Z,7.31
2023-01-21T09:55:49.946Z,7.24
2023-01-21T09:57:01.907Z,7.05
2023-01-21T09:58:32.727Z,7.50
2023-01-21T09:59:38.509Z,7.36
2023-01-21T10:00:49.463Z,7.47
2023-01-21T10:01:47.294Z,7.64
2023-01-21T10:03:04.427Z,7.92
2023-01-21T10:04:34.836Z,7.99
2023-01-21T10:05:41.943Z,8.07
2023-01-21T10:07:02.880Z,7.80
2023-01-21T10:08:38.392Z,7.55
2023-01-21T10:10:06.488Z,8.08
2023-01-21T10:11:33.722Z,7.83
2023-01-21T10:12:45.443Z,8.27
2023-01-21T10:14:03.643Z,8.46
2023-01-21T10:15:28.377Z,8.27
2023-01-21T10:16:24.913Z,8.15
2023-01-21T10:17:43.109Z,7.88
2023-01-21T10:18:44.213Z,7.98
2023-01-21T10:20:04.896Z,7.87
2023-01-21T10:21:33.284Z,7.56
2023-01-21T10:22:29.938Z,7.64
2023-01-21T10:23:42.846Z,7.78
2023-01-21T10:24:46.411Z,7.75
2023-01-21T10:25:47.017Z,7.59
2023-01-21T10:26:47.819Z,7.36
2023-01-21T10:27:45.667Z,7.57
2023-01-21T10:28:47.790Z,7.32
2023-01-21T10:29:46.487Z,7.13
2023-01-21T10:30:46.052Z,6.99
2023-01-21T10:32:04.434Z,7.70
2023-01-21T10:33:01.106Z,7.75
2023-01-21T10:33:57.714Z,7.85
2023-01-21T10:34:57.173Z,7.81
2023-01-21T10:36:17.948Z,7.70
2023-01-21T10:37:37.246Z,7.98
2023-01-21T10:39:01.894Z,7.96
2023-01-21T10:40:17.412Z,8.01
2023-01-21T10:41:37.467Z,7.81
2023-01-21T10:42:55.723Z,7.95
2023-01-21T10:44:07.976Z,7.78
2023-01-21T10:45:15.661Z,7.80
2023-01-21T10:46:41.467Z,7.58
2023-01-21T10:48:02.788Z,7.65
2023-01-21T10:49:09.444Z,7.43
2023-01-21T10:50:30.048Z,7.79
2023-01-21T10:51:38.341Z,8.13
2023-01-21T10:52:48.122Z,8.37
2023-01-21T10:53:57.348Z,8.42
2023-01-21T10:55:05.540Z,8.67
2023-01-21T10:56:07.716Z,8.37
2023-01-21T10:57:11.921Z,8.67
2023-01-21T10:58:27.151Z,8.90
2023-01-21T10:59:27.737Z,8.51
2023-01-21T11:00:32.874Z,8.40
2023-01-21T11:01:33.414Z,8.26
2023-01-21T11:02:32.593Z,8.60
2023-01-21T11:03:44.117Z,8.74
2023-01-21T11:04:41.895Z,8.61
2023-01-21T11:05:38.657Z,8.46
2023-01-21T11:06:35.523Z,8.41
2023-01-21T11:07:36.898Z,8.74
2023-01-21T11:08:33.560Z,8.76
2023-01-21T11:09:33.891Z,9.05
2023-01-21T11:10:31.010Z,8.95
2023-01-21T11:11:30.937Z,9.05
2023-01-21T11:12:27.575Z,9.16
2023-01-21T11:13:24.349Z,9.07
2023-01-21T11:14:21.831Z,9.16
2023-01-21T11:15:20.591Z,9.00
2023-01-21T11:16:33.335Z,9.26
2023-01-21T11:17:35.891Z,9.04
2023-01-21T11:18:38.542Z,8.96
2023-01-21T11:19:35.184Z,8.75
2023-01-21T11:20:43.287Z,8.74
2023-01-21T11:21:40.244Z,9.25
2023-01-21T11:22:43.603Z,9.24
2023-01-21T11:23:40.204Z,8.90
2023-01-21T11:24:48.855Z,8.78
2023-01-21T11:25:45.482Z,9.10
2023-01-21T11:27:09.461Z,9.35
2023-01-21T11:28:12.761Z,9.28
2023-01-21T11:29:16.854Z,9.21
2023-01-21T11:30:50.070Z,9.08
2023-01-21T11:32:03.579Z,9.10
2023-01-21T11:33:22.461Z,9.01
2023-01-21T11:34:23.715Z,8.91
2023-01-21T11:35:23.134Z,9.18
2023-01-21T11:36:21.448Z,9.41
2023-01-21T11:37:24.204Z,9.76
2023-01-21T11:38:25.551Z,9.94
2023-01-21T11:39:30.344Z,9.93
2023-01-21T11:40:27.048Z,9.44
2023-01-21T11:41:23.816Z,9.43
2023-01-21T11:42:20.903Z,9.17
2023-01-21T11:43:35.502Z,9.43
2023-01-21T11:44:33.397Z,9.05
2023-01-21T11:45:38.139Z,9.12
2023-01-21T11:46:40.015Z,9.43
2023-01-21T11:47:46.733Z,9.82
2023-01-21T11:48:44.201Z,10.24
2023-01-21T11:49:47.873Z,10.34
2023-01-21T11:50:44.681Z,10.38
2023-01-21T11:51:44.699Z,10.61
2023-01-21T11:52:41.506Z,9.97
2023-01-21T11:53:38.472Z,10.01
2023-01-21T11:54:39.409Z,9.99
2023-01-21T11:55:39.709Z,9.97
2023-01-21T11:56:36.853Z,10.03
2023-01-21T11:57:33.893Z,9.70
2023-01-21T11:58:34.854Z,9.74
2023-01-21T11:59:38.827Z,9.66
2023-01-21T12:00:36.560Z,9.54
2023-01-21T12:01:33.258Z,8.94
2023-01-21T12:02:34.183Z,9.31
2023-01-21T12:03:36.456Z,9.25
2023-01-21T12:04:35.109Z,8.97
2023-01-21T12:05:36.198Z,8.94
2023-01-21T12:06:36.092Z,9.09
2023-01-21T12:07:41.910Z,9.11
2023-01-21T12:08:40.509Z,9.03
2023-01-21T12:09:37.177Z,9.02
2023-01-21T12:10:38.473Z,9.15
2023-01-21T12:11:35.122Z,9.18
2023-01-21T12:12:56.912Z,8.97
2023-01-21T12:14:15.120Z,8.89
2023-01-21T12:15:24.205Z,8.57
2023-01-21T12:16:27.038Z,8.61
2023-01-21T12:17:56.580Z,8.87
2023-01-21T12:19:05.046Z,9.21
2023-01-21T12:20:11.628Z,9.35
2023-01-21T12:21:11.040Z,9.35
2023-01-21T12:22:12.942Z,9.14
2023-01-21T12:23:44.188Z,9.25
2023-01-21T12:25:18.893Z,9.23
2023-01-21T12:26:24.041Z,9.22
2023-01-21T12:27:26.217Z,9.44
2023-01-21T12:28:33.287Z,9.43
2023-01-21T12:29:41.744Z,9.72
2023-01-21T12:30:51.830Z,9.88
2023-01-21T12:32:07.844Z,9.94
2023-01-21T12:33:19.355Z,9.92
2023-01-21T12:34:31.131Z,9.80
2023-01-21T12:35:38.984Z,9.95
2023-01-21T12:36:44.925Z,9.67
2023-01-21T12:37:48.501Z,9.90
2023-01-21T12:38:54.256Z,9.58
2023-01-21T12:39:54.033Z,9.64
2023-01-21T12:41:10.625Z,9.04
2023-01-21T12:42:23.408Z,9.11
2023-01-21T12:43:25.633Z,8.99
2023-01-21T12:45:00.723Z,9.30
2023-01-21T12:46:06.243Z,9.25
2023-01-21T12:47:10.191Z,9.30
2023-01-21T12:48:37.170Z,9.40
2023-01-21T12:49:59.430Z,9.37
2023-01-21T12:51:09.648Z,9.20
2023-01-21T12:52:14.576Z,8.92
2023-01-21T12:53:25.221Z,9.00
2023-01-21T12:54:40.190Z,8.78
2023-01-21T12:56:09.222Z,8.74
2023-01-21T12:57:17.755Z,8.63
2023-01-21T12:58:20.787Z,8.40
2023-01-21T12:59:24.272Z,8.65
2023-01-21T13:00:25.929Z,8.35
2023-01-21T13:01:43.635Z,8.44
2023-01-21T13:03:14.063Z,8.66
2023-01-21T13:04:33.421Z,8.39
2023-01-21T13:05:44.403Z,8.27
2023-01-21T13:06:54.213Z,8.10
2023-01-21T13:08:05.431Z,8.40
2023-01-21T13:09:19.965Z,8.41
2023-01-21T13:10:45.527Z,8.65
2023-01-21T13:12:14.371Z,8.56
2023-01-21T13:13:26.950Z,8.41
2023-01-21T13:14:47.385Z,8.58
2023-01-21T13:15:49.884Z,8.72
2023-01-21T13:16:55.619Z,8.18
2023-01-21T13:17:57.595Z,8.38
2023-01-21T13:18:55.549Z,8.38
2023-01-21T13:19:52.185Z,8.44
2023-01-21T13:20:56.194Z,8.42
2023-01-21T13:22:09.160Z,8.30
2023-01-21T13:23:58.599Z,7.97
2023-01-21T13:25:22.019Z,7.92
2023-01-21T13:27:00.062Z,8.18
2023-01-21T13:28:15.236Z,7.90
2023-01-21T13:29:32.209Z,7.83
2023-01-21T13:30:47.304Z,7.90